createdAt,value
2017-11-19T00:02:16.369Z,59.70
2017-11-19T00:04:43.859Z,59.60
2017-11-19T00:07:11.373Z,59.60
2017-11-19T00:09:38.884Z,59.80
2017-11-19T00:12:07.157Z,60.20
2017-11-19T00:14:35.421Z,60.30
2017-11-19T00:17:02.923Z,60.30
2017-11-19T00:19:30.420Z,60.60
2017-11-19T00:21:57.988Z,60.40
2017-11-19T00:24:25.483Z,60.60
2017-11-19T00:26:52.995Z,61.20
2017-11-19T00:29:20.517Z,60.50
2017-11-19T00:31:48.024Z,60.50
2017-11-19T00:34:15.521Z,60.10
2017-11-19T00:36:43.777Z,60.10
2017-11-19T00:39:12.067Z,60.40
2017-11-19T00:41:40.344Z,60.50
2017-11-19T00:44:08.613Z,60.30
2017-11-19T00:46:36.873Z,60.20
2017-11-19T00:49:05.164Z,60.50
2017-11-19T00:51:33.445Z,60.80
2017-11-19T00:54:01.713Z,60.50
2017-11-19T00:56:30.008Z,60.40
2017-11-19T00:58:58.284Z,60.20
2017-11-19T01:01:26.544Z,60.60
2017-11-19T01:03:54.826Z,60.80
2017-11-19T01:06:23.107Z,60.60
2017-11-19T01:08:51.389Z,60.30
2017-11-19T01:11:19.649Z,60.60
2017-11-19T01:13:47.936Z,60.80
2017-11-19T01:16:16.201Z,60.50
2017-11-19T01:18:44.465Z,60.40
2017-11-19T01:21:11.989Z,60.40
2017-11-19T01:23:39.489Z,60.30
2017-11-19T01:26:07.780Z,60.70
2017-11-19T01:28:36.061Z,60.70
2017-11-19T01:31:04.347Z,60.90
2017-11-19T01:33:31.844Z,60.80
2017-11-19T01:35:59.357Z,61.00
2017-11-19T01:38:26.864Z,61.00
2017-11-19T01:40:54.416Z,61.00
2017-11-19T01:43:21.904Z,61.20
2017-11-19T01:45:49.418Z,61.40
2017-11-19T01:48:16.925Z,61.60
2017-11-19T01:50:45.197Z,61.70
2017-11-19T01:53:12.697Z,61.70
2017-11-19T01:55:40.226Z,61.50
2017-11-19T01:58:08.493Z,61.40
2017-11-19T02:00:36.010Z,61.40
2017-11-19T02:03:03.521Z,61.50
2017-11-19T02:05:31.781Z,61.80
2017-11-19T02:07:59.276Z,61.80
2017-11-19T02:10:26.789Z,62.00
2017-11-19T02:12:54.306Z,62.00
2017-11-19T02:15:21.806Z,61.80
2017-11-19T02:17:49.309Z,61.50
2017-11-19T02:20:16.829Z,61.60
2017-11-19T02:22:44.346Z,61.10
2017-11-19T02:25:11.842Z,61.30
2017-11-19T02:27:39.372Z,61.50
2017-11-19T02:30:06.869Z,61.30
2017-11-19T02:32:34.368Z,61.30
2017-11-19T02:35:01.898Z,61.70
2017-11-19T02:37:30.186Z,61.70
2017-11-19T02:39:57.709Z,61.70
2017-11-19T02:42:25.218Z,61.60
2017-11-19T02:44:52.743Z,61.80
2017-11-19T02:47:20.243Z,61.50
2017-11-19T02:49:47.754Z,62.00
2017-11-19T02:52:15.256Z,61.80
2017-11-19T02:54:42.762Z,61.90
2017-11-19T02:57:10.350Z,61.80
2017-11-19T02:59:38.644Z,62.30
2017-11-19T03:02:06.158Z,62.30
2017-11-19T03:04:33.653Z,62.10
2017-11-19T03:07:01.918Z,62.20
2017-11-19T03:09:30.189Z,61.90
2017-11-19T03:11:58.452Z,61.90
2017-11-19T03:14:27.475Z,61.60
2017-11-19T03:16:55.738Z,61.10
2017-11-19T03:19:24.017Z,61.20
2017-11-19T03:21:52.309Z,61.50
2017-11-19T03:24:19.808Z,61.40
2017-11-19T03:26:47.313Z,61.60
2017-11-19T03:29:15.602Z,61.50
2017-11-19T03:31:43.101Z,61.50
2017-11-19T03:34:10.592Z,61.70
2017-11-19T03:36:38.097Z,61.80
2017-11-19T03:39:05.613Z,61.60
2017-11-19T03:41:33.908Z,62.60
2017-11-19T03:44:02.165Z,62.70
2017-11-19T03:46:30.440Z,63.10
2017-11-19T03:48:58.713Z,63.20
2017-11-19T03:51:26.233Z,63.10
2017-11-19T03:53:53.757Z,63.20
2017-11-19T03:56:21.258Z,63.40
2017-11-19T03:58:48.772Z,63.30
2017-11-19T04:01:17.037Z,63.70
2017-11-19T04:03:45.305Z,63.70
2017-11-19T04:06:13.599Z,63.70
2017-11-19T04:08:41.858Z,63.80
2017-11-19T04:11:10.120Z,63.90
2017-11-19T04:13:39.137Z,64.10
2017-11-19T04:16:07.401Z,63.80
2017-11-19T04:18:34.905Z,63.80
2017-11-19T04:21:02.424Z,64.20
2017-11-19T04:23:30.696Z,64.60
2017-11-19T04:25:58.957Z,64.30
2017-11-19T04:28:26.466Z,64.30
2017-11-19T04:30:53.964Z,64.20
2017-11-19T04:33:21.469Z,64.00
2017-11-19T04:35:48.970Z,63.80
2017-11-19T04:38:16.484Z,63.80
2017-11-19T04:40:43.992Z,63.80
2017-11-19T04:43:11.510Z,63.90
2017-11-19T04:45:39.032Z,63.80
2017-11-19T04:48:06.533Z,64.20
2017-11-19T04:50:34.033Z,64.80
2017-11-19T04:53:01.565Z,64.20
2017-11-19T04:55:29.057Z,64.30
2017-11-19T04:57:56.580Z,64.40
2017-11-19T05:00:24.119Z,64.20
2017-11-19T05:02:51.632Z,64.10
2017-11-19T05:05:19.150Z,64.20
2017-11-19T05:07:46.644Z,64.40
2017-11-19T05:10:14.165Z,64.50
2017-11-19T05:12:41.684Z,64.50
2017-11-19T05:15:09.974Z,64.70
2017-11-19T05:17:38.258Z,64.30
2017-11-19T05:20:05.778Z,64.20
2017-11-19T05:22:33.298Z,64.00
2017-11-19T05:25:00.796Z,64.40
2017-11-19T05:27:28.292Z,64.00
2017-11-19T05:29:55.790Z,63.70
2017-11-19T05:32:23.288Z,63.40
2017-11-19T05:34:51.572Z,63.40
2017-11-19T05:37:19.085Z,63.30
2017-11-19T05:39:46.599Z,63.20
2017-11-19T05:42:14.857Z,62.90
2017-11-19T05:44:43.147Z,62.50
2017-11-19T05:47:11.433Z,62.40
2017-11-19T05:49:38.937Z,62.40
2017-11-19T05:52:06.455Z,62.30
2017-11-19T05:54:34.285Z,62.30
2017-11-19T05:57:01.809Z,62.40
2017-11-19T05:59:29.313Z,61.80
2017-11-19T06:01:57.585Z,62.50
2017-11-19T06:04:25.868Z,62.50
2017-11-19T06:06:54.149Z,62.80
2017-11-19T06:09:22.436Z,62.40
2017-11-19T06:11:49.937Z,62.40
2017-11-19T06:14:17.432Z,62.20
2017-11-19T06:16:45.727Z,62.00
2017-11-19T06:19:13.225Z,61.90
2017-11-19T06:21:40.732Z,61.90
2017-11-19T06:24:09.016Z,62.00
2017-11-19T06:26:37.288Z,62.00
2017-11-19T06:29:05.550Z,62.10
2017-11-19T06:31:33.062Z,62.10
2017-11-19T06:34:00.563Z,61.90
2017-11-19T06:36:28.065Z,62.10
2017-11-19T06:38:55.580Z,62.10
2017-11-19T06:41:23.093Z,62.50
2017-11-19T06:43:50.604Z,63.30
2017-11-19T06:46:18.885Z,62.50
2017-11-19T06:48:47.160Z,62.50
2017-11-19T06:51:15.457Z,62.60
2017-11-19T06:53:43.109Z,62.60
2017-11-19T06:56:11.376Z,62.40
2017-11-19T06:58:39.645Z,62.60
2017-11-19T07:01:07.928Z,62.60
2017-11-19T07:03:36.208Z,62.90
2017-11-19T07:06:04.484Z,62.70
2017-11-19T07:08:32.829Z,62.90
2017-11-19T07:11:00.357Z,63.60
2017-11-19T07:13:27.871Z,62.80
2017-11-19T07:15:56.137Z,62.70
2017-11-19T07:18:24.410Z,62.40
2017-11-19T07:20:52.710Z,62.60
2017-11-19T07:23:21.925Z,62.20
2017-11-19T07:25:49.438Z,62.20
2017-11-19T07:28:16.946Z,62.40
2017-11-19T07:30:44.449Z,63.20
2017-11-19T07:33:11.962Z,63.90
2017-11-19T07:35:39.469Z,64.40
2017-11-19T07:38:06.990Z,65.00
2017-11-19T07:40:34.506Z,65.60
2017-11-19T07:43:02.787Z,66.30
2017-11-19T07:45:31.053Z,66.40
2017-11-19T07:47:58.559Z,66.40
2017-11-19T07:50:26.064Z,66.70
2017-11-19T07:52:53.579Z,66.90
2017-11-19T07:55:21.100Z,67.00
2017-11-19T07:57:49.368Z,67.70
2017-11-19T08:00:17.656Z,67.90
2017-11-19T08:02:45.940Z,68.20
2017-11-19T08:05:14.204Z,69.20
2017-11-19T08:07:42.484Z,69.50
2017-11-19T08:10:10.757Z,69.90
2017-11-19T08:12:39.020Z,70.60
2017-11-19T08:15:06.540Z,70.70
2017-11-19T08:17:34.049Z,72.10
2017-11-19T08:20:02.321Z,71.90
2017-11-19T08:22:30.596Z,72.30
2017-11-19T08:24:58.877Z,72.90
2017-11-19T08:27:27.147Z,72.70
2017-11-19T08:29:55.510Z,73.30
2017-11-19T08:32:23.005Z,73.30
2017-11-19T08:34:50.497Z,73.00
2017-11-19T08:37:18.003Z,73.00
2017-11-19T08:39:46.277Z,72.70
2017-11-19T08:42:13.770Z,72.70
2017-11-19T08:44:41.268Z,72.40
2017-11-19T08:47:08.781Z,71.80
2017-11-19T08:49:36.297Z,72.00
2017-11-19T08:52:03.807Z,72.30
2017-11-19T08:54:31.300Z,72.10
2017-11-19T08:56:58.793Z,72.20
2017-11-19T08:59:27.062Z,72.80
2017-11-19T09:01:55.325Z,72.40
2017-11-19T09:04:22.822Z,72.30
2017-11-19T09:06:50.313Z,71.60
2017-11-19T09:09:17.824Z,71.20
2017-11-19T09:11:46.090Z,71.50
2017-11-19T09:14:14.358Z,70.90
2017-11-19T09:16:41.869Z,70.90
2017-11-19T09:19:09.368Z,71.10
2017-11-19T09:21:36.874Z,70.90
2017-11-19T09:24:04.389Z,71.30
2017-11-19T09:26:31.884Z,70.90
2017-11-19T09:28:59.381Z,71.10
2017-11-19T09:31:26.890Z,71.50
2017-11-19T09:33:55.152Z,71.00
2017-11-19T09:36:23.413Z,71.20
2017-11-19T09:38:50.920Z,71.10
2017-11-19T09:41:18.408Z,71.50
2017-11-19T09:43:45.915Z,71.40
2017-11-19T09:46:14.188Z,72.00
2017-11-19T09:48:42.445Z,72.10
2017-11-19T09:51:10.700Z,72.30
2017-11-19T09:53:38.213Z,72.30
2017-11-19T09:56:05.713Z,72.60
2017-11-19T09:58:33.212Z,72.50
2017-11-19T10:01:01.495Z,72.50
2017-11-19T10:03:29.774Z,72.10
2017-11-19T10:05:57.271Z,72.10
2017-11-19T10:08:24.777Z,72.50
2017-11-19T10:10:53.323Z,71.90
2017-11-19T10:13:20.818Z,71.80
2017-11-19T10:15:49.101Z,72.00
2017-11-19T10:18:17.396Z,72.30
2017-11-19T10:20:44.967Z,72.30
2017-11-19T10:23:12.545Z,72.70
2017-11-19T10:25:40.125Z,72.00
2017-11-19T10:28:07.747Z,71.90
2017-11-19T10:30:35.355Z,71.50
2017-11-19T10:33:03.647Z,72.10
2017-11-19T10:35:31.994Z,73.60
2017-11-19T10:37:59.537Z,72.80
2017-11-19T10:40:29.097Z,72.60
2017-11-19T10:42:57.353Z,73.90
2017-11-19T10:45:24.853Z,73.80
2017-11-19T10:47:52.365Z,73.80
2017-11-19T10:50:19.857Z,73.90
2017-11-19T10:52:48.149Z,74.10
2017-11-19T10:55:15.651Z,74.10
2017-11-19T10:57:43.155Z,74.00
2017-11-19T11:00:10.658Z,74.50
2017-11-19T11:02:38.165Z,75.20
2017-11-19T11:05:06.445Z,75.10
2017-11-19T11:07:33.936Z,75.10
2017-11-19T11:10:01.436Z,75.00
2017-11-19T11:12:29.701Z,74.10
2017-11-19T11:14:57.188Z,74.10
2017-11-19T11:17:24.696Z,74.10
2017-11-19T11:19:52.185Z,74.00
2017-11-19T11:22:19.697Z,74.40
2017-11-19T11:24:47.252Z,75.80
2017-11-19T11:27:14.758Z,75.10
2017-11-19T11:29:42.265Z,75.30
2017-11-19T11:32:09.779Z,74.70
2017-11-19T11:34:38.051Z,74.10
2017-11-19T11:37:05.545Z,74.00
2017-11-19T11:39:33.041Z,74.10
2017-11-19T11:42:00.540Z,74.30
2017-11-19T11:44:28.796Z,74.40
2017-11-19T11:46:56.300Z,74.40
2017-11-19T11:49:23.789Z,73.90
2017-11-19T11:51:51.283Z,73.60
2017-11-19T11:54:19.545Z,74.70
2017-11-19T11:56:47.045Z,73.90
2017-11-19T11:59:14.542Z,74.20
2017-11-19T12:01:42.034Z,74.00
2017-11-19T12:04:10.313Z,73.30
2017-11-19T12:06:38.569Z,72.90
2017-11-19T12:09:06.068Z,72.80
2017-11-19T12:11:33.569Z,72.60
2017-11-19T12:14:01.082Z,72.80
2017-11-19T12:16:28.588Z,73.00
2017-11-19T12:18:56.095Z,73.00
2017-11-19T12:21:23.598Z,72.20
2017-11-19T12:23:51.097Z,72.40
2017-11-19T12:26:19.359Z,72.30
2017-11-19T12:28:46.866Z,72.20
2017-11-19T12:31:14.377Z,72.20
2017-11-19T12:33:41.869Z,72.20
2017-11-19T12:36:09.381Z,72.20
2017-11-19T12:38:36.878Z,72.10
2017-11-19T12:41:04.385Z,72.60
2017-11-19T12:43:31.883Z,73.20
2017-11-19T12:46:00.147Z,73.90
2017-11-19T12:48:27.633Z,73.90
2017-11-19T12:50:55.148Z,76.80
2017-11-19T12:53:22.668Z,76.70
2017-11-19T12:55:50.157Z,76.80
2017-11-19T12:58:17.664Z,77.70
2017-11-19T13:00:45.177Z,78.90
2017-11-19T13:03:12.669Z,78.40
2017-11-19T13:05:40.979Z,77.60
2017-11-19T13:08:08.472Z,77.60
2017-11-19T13:10:35.965Z,78.40
2017-11-19T13:13:04.245Z,77.70
2017-11-19T13:15:32.516Z,77.50
2017-11-19T13:18:00.941Z,78.10
2017-11-19T13:20:28.445Z,77.90
2017-11-19T13:22:55.939Z,79.10
2017-11-19T13:25:23.478Z,78.60
2017-11-19T13:27:50.997Z,78.70
2017-11-19T13:30:18.493Z,78.80
2017-11-19T13:32:46.761Z,78.80
2017-11-19T13:35:15.037Z,79.00
2017-11-19T13:37:43.307Z,79.10
2017-11-19T13:40:21.912Z,79.70
2017-11-19T13:42:49.401Z,79.70
2017-11-19T13:45:17.685Z,79.80
2017-11-19T13:47:45.193Z,79.80
2017-11-19T13:50:12.700Z,79.50
2017-11-19T13:52:40.204Z,79.90
2017-11-19T13:55:07.696Z,80.40
2017-11-19T13:57:35.957Z,80.40
2017-11-19T14:00:03.453Z,80.40
2017-11-19T14:02:31.042Z,80.30
2017-11-19T14:04:58.533Z,80.20
2017-11-19T14:07:26.812Z,80.40
2017-11-19T14:09:54.313Z,80.40
2017-11-19T14:12:21.821Z,79.40
2017-11-19T14:14:49.329Z,79.40
2017-11-19T14:17:16.820Z,79.40
2017-11-19T14:19:44.330Z,80.00
2017-11-19T14:22:12.585Z,81.80
2017-11-19T14:24:40.861Z,83.10
2017-11-19T14:27:08.363Z,82.40
2017-11-19T14:29:35.862Z,83.60
2017-11-19T14:32:03.348Z,82.00
2017-11-19T14:34:31.605Z,81.10
2017-11-19T14:36:59.124Z,81.10
2017-11-19T14:39:26.626Z,81.50
2017-11-19T14:41:54.923Z,81.90
2017-11-19T14:44:23.178Z,81.50
2017-11-19T14:46:50.674Z,81.50
2017-11-19T14:49:18.174Z,82.00
2017-11-19T14:51:45.670Z,81.70
2017-11-19T14:54:13.935Z,79.30
2017-11-19T14:56:42.218Z,78.40
2017-11-19T14:59:10.476Z,78.60
2017-11-19T15:01:37.981Z,78.60
2017-11-19T15:04:05.516Z,77.60
2017-11-19T15:06:33.800Z,77.20
2017-11-19T15:09:02.066Z,77.10
2017-11-19T15:11:29.598Z,77.00
2017-11-19T15:13:57.124Z,76.20
2017-11-19T15:16:24.614Z,76.10
2017-11-19T15:18:52.097Z,76.00
2017-11-19T15:21:20.363Z,75.60
2017-11-19T15:23:48.649Z,75.40
2017-11-19T15:26:16.913Z,75.50
2017-11-19T15:28:44.408Z,75.40
2017-11-19T15:31:11.914Z,76.80
2017-11-19T15:33:39.405Z,75.30
2017-11-19T15:36:07.668Z,75.60
2017-11-19T15:38:35.164Z,75.50
2017-11-19T15:41:02.665Z,75.20
2017-11-19T15:43:30.182Z,75.20
2017-11-19T15:45:57.672Z,74.40
2017-11-19T15:48:25.161Z,74.40
2017-11-19T15:50:53.431Z,74.50
2017-11-19T15:53:20.949Z,74.40
2017-11-19T15:55:48.457Z,74.80
2017-11-19T15:58:16.717Z,74.40
2017-11-19T16:00:44.226Z,74.40
2017-11-19T16:03:11.749Z,73.80
2017-11-19T16:05:40.008Z,73.30
2017-11-19T16:08:08.384Z,73.20
2017-11-19T16:10:35.881Z,73.10
2017-11-19T16:13:03.390Z,72.30
2017-11-19T16:15:30.907Z,71.60
2017-11-19T16:17:58.421Z,71.00
2017-11-19T16:20:26.684Z,71.50
2017-11-19T16:22:54.188Z,71.50
2017-11-19T16:25:21.700Z,71.50
2017-11-19T16:27:49.193Z,71.90
2017-11-19T16:30:17.460Z,71.70
2017-11-19T16:32:44.973Z,71.70
2017-11-19T16:35:12.464Z,71.70
2017-11-19T16:37:39.961Z,71.50
2017-11-19T16:40:07.453Z,71.80
2017-11-19T16:42:34.977Z,71.90
2017-11-19T16:45:02.497Z,72.10
2017-11-19T16:47:30.002Z,71.80
2017-11-19T16:49:57.502Z,71.30
2017-11-19T16:52:25.005Z,72.20
2017-11-19T16:54:53.265Z,72.30
2017-11-19T16:57:21.541Z,72.10
2017-11-19T16:59:49.822Z,72.20
2017-11-19T17:02:27.117Z,72.00
2017-11-19T17:04:54.671Z,72.10
2017-11-19T17:07:22.951Z,72.00
2017-11-19T17:09:51.228Z,71.70
2017-11-19T17:12:19.512Z,71.20
2017-11-19T17:14:47.769Z,71.00
2017-11-19T17:17:16.033Z,70.70
2017-11-19T17:19:43.524Z,70.70
2017-11-19T17:22:11.025Z,70.70
2017-11-19T17:24:38.526Z,69.80
2017-11-19T17:27:06.800Z,69.80
2017-11-19T17:29:35.073Z,70.30
2017-11-19T17:32:03.336Z,71.10
2017-11-19T17:34:30.845Z,70.70
2017-11-19T17:36:58.365Z,71.50
2017-11-19T17:39:26.628Z,72.40
2017-11-19T17:41:54.141Z,72.40
2017-11-19T17:44:21.628Z,73.10
2017-11-19T17:46:49.121Z,73.80
2017-11-19T17:49:17.391Z,74.60
2017-11-19T17:51:45.656Z,75.10
2017-11-19T17:54:13.160Z,75.10
2017-11-19T17:56:40.681Z,75.30
2017-11-19T17:59:08.942Z,75.40
2017-11-19T18:01:37.941Z,75.90
2017-11-19T18:04:05.429Z,75.80
2017-11-19T18:06:33.685Z,75.80
2017-11-19T18:09:01.193Z,75.80
2017-11-19T18:11:28.681Z,75.90
2017-11-19T18:13:56.195Z,75.70
2017-11-19T18:16:23.698Z,75.60
2017-11-19T18:18:51.205Z,75.70
2017-11-19T18:21:18.708Z,75.40
2017-11-19T18:23:46.221Z,75.60
2017-11-19T18:26:13.728Z,75.80
2017-11-19T18:28:41.218Z,75.80
2017-11-19T18:31:09.492Z,75.90
2017-11-19T18:33:37.761Z,76.50
2017-11-19T18:36:05.275Z,76.40
2017-11-19T18:38:32.777Z,76.50
2017-11-19T18:41:00.269Z,76.30
2017-11-19T18:43:27.772Z,76.80
2017-11-19T18:45:55.295Z,77.20
2017-11-19T18:48:22.865Z,77.40
2017-11-19T18:50:50.385Z,77.00
2017-11-19T18:53:18.644Z,77.20
2017-11-19T18:55:46.138Z,77.20
2017-11-19T18:58:13.645Z,76.50
2017-11-19T19:00:41.140Z,76.70
2017-11-19T19:03:09.397Z,76.80
2017-11-19T19:05:38.412Z,76.50
2017-11-19T19:08:06.713Z,76.10
2017-11-19T19:10:34.209Z,76.10
2017-11-19T19:13:01.722Z,75.80
2017-11-19T19:15:29.220Z,75.40
2017-11-19T19:17:56.740Z,75.60
2017-11-19T19:20:24.248Z,75.90
2017-11-19T19:22:51.749Z,75.90
2017-11-19T19:25:19.249Z,75.60
2017-11-19T19:27:46.885Z,75.60
2017-11-19T19:30:14.377Z,75.80
2017-11-19T19:32:41.898Z,75.60
2017-11-19T19:35:09.400Z,75.50
2017-11-19T19:37:37.036Z,75.00
2017-11-19T19:40:04.652Z,75.00
2017-11-19T19:42:32.285Z,75.30
2017-11-19T19:45:00.686Z,75.60
2017-11-19T19:47:28.245Z,75.50
2017-11-19T19:49:56.651Z,76.70
2017-11-19T19:52:24.160Z,76.70
2017-11-19T19:54:51.664Z,76.40
2017-11-19T19:57:19.175Z,76.70
2017-11-19T19:59:46.772Z,76.80
2017-11-19T20:02:14.379Z,77.00
2017-11-19T20:04:41.965Z,77.00
2017-11-19T20:07:10.353Z,76.50
2017-11-19T20:09:38.715Z,76.40
2017-11-19T20:12:07.783Z,76.40
2017-11-19T20:14:35.418Z,76.40
2017-11-19T20:17:03.028Z,76.20
2017-11-19T20:19:31.420Z,76.10
2017-11-19T20:21:59.858Z,75.70
2017-11-19T20:24:27.494Z,75.60
2017-11-19T20:26:55.126Z,76.30
2017-11-19T20:29:23.509Z,76.00
2017-11-19T20:31:51.888Z,75.70
2017-11-19T20:34:20.255Z,75.80
2017-11-19T20:36:48.101Z,75.70
2017-11-19T20:39:15.739Z,75.90
2017-11-19T20:41:43.324Z,75.50
2017-11-19T20:44:11.690Z,76.00
2017-11-19T20:46:39.298Z,75.20
2017-11-19T20:49:07.698Z,74.90
2017-11-19T20:51:35.328Z,74.90
2017-11-19T20:54:03.643Z,74.10
2017-11-19T20:56:31.417Z,74.00
2017-11-19T20:58:59.042Z,74.10
2017-11-19T21:01:27.458Z,74.20
2017-11-19T21:03:55.053Z,74.20
2017-11-19T21:06:22.693Z,74.00
2017-11-19T21:08:50.317Z,73.40
2017-11-19T21:11:17.942Z,73.40
2017-11-19T21:13:45.553Z,73.30
2017-11-19T21:16:13.151Z,73.10
2017-11-19T21:18:40.884Z,73.20
2017-11-19T21:21:08.497Z,73.10
2017-11-19T21:23:36.870Z,73.10
2017-11-19T21:26:04.498Z,73.10
2017-11-19T21:28:32.109Z,72.70
2017-11-19T21:31:00.489Z,73.80
2017-11-19T21:33:28.864Z,73.80
2017-11-19T21:35:57.249Z,73.40
2017-11-19T21:38:25.637Z,73.50
2017-11-19T21:40:53.251Z,73.50
2017-11-19T21:43:20.756Z,73.70
2017-11-19T21:45:49.017Z,74.00
2017-11-19T21:48:16.503Z,74.00
2017-11-19T21:50:44.017Z,74.50
2017-11-19T21:53:11.535Z,74.40
2017-11-19T21:55:39.032Z,75.00
2017-11-19T21:58:06.525Z,75.20
2017-11-19T22:00:34.787Z,76.00
2017-11-19T22:03:03.048Z,76.20
2017-11-19T22:05:30.569Z,76.10
2017-11-19T22:07:58.060Z,75.90
2017-11-19T22:10:25.564Z,76.20
2017-11-19T22:12:53.065Z,76.20
2017-11-19T22:15:20.564Z,76.20
2017-11-19T22:17:48.840Z,77.30
2017-11-19T22:20:17.115Z,77.40
2017-11-19T22:22:45.391Z,77.80
2017-11-19T22:25:13.645Z,77.70
2017-11-19T22:27:41.140Z,77.70
2017-11-19T22:30:08.912Z,77.90
2017-11-19T22:32:36.423Z,77.90
2017-11-19T22:35:03.934Z,78.20
2017-11-19T22:37:31.429Z,78.20
2017-11-19T22:39:58.940Z,78.30
2017-11-19T22:42:26.452Z,77.80
2017-11-19T22:44:53.955Z,77.90
2017-11-19T22:47:21.445Z,77.90
2017-11-19T22:49:48.957Z,78.30
2017-11-19T22:52:17.221Z,78.00
2017-11-19T22:54:44.728Z,78.00
2017-11-19T22:57:12.216Z,78.80
2017-11-19T22:59:39.708Z,78.40
2017-11-19T23:02:07.965Z,77.90
2017-11-19T23:04:35.456Z,77.90
2017-11-19T23:07:02.954Z,77.70
2017-11-19T23:09:30.445Z,77.80
2017-11-19T23:11:58.728Z,77.20
2017-11-19T23:14:26.992Z,77.00
2017-11-19T23:16:54.500Z,77.00
2017-11-19T23:19:22.027Z,76.90
2017-11-19T23:21:50.293Z,76.10
2017-11-19T23:24:17.784Z,76.10
2017-11-19T23:26:45.272Z,76.20
2017-11-19T23:29:12.784Z,75.90
2017-11-19T23:31:41.061Z,75.80
2017-11-19T23:34:09.352Z,75.30
2017-11-19T23:36:36.875Z,75.20
2017-11-19T23:39:05.290Z,75.30
2017-11-19T23:41:32.797Z,75.20
2017-11-19T23:44:00.336Z,75.50
2017-11-19T23:46:27.827Z,75.40
2017-11-19T23:48:55.319Z,75.00
2017-11-19T23:51:22.813Z,75.10
2017-11-19T23:53:50.305Z,75.10
2017-11-19T23:56:17.796Z,75.00
2017-11-19T23:58:45.424Z,75.00
